Time;durP1;ratioP1;P1;durP2;ratioP2;P2;SDS_P1;SDS_P2;PMS_P1;PMS_P2;Temp;Humidity;BMP_temperature;BMP_pressure;BME280_temperature;BME280_humidity;BME280_pressure;Samples;Min_cycle;Max_cycle;Signal;HPM_P1;HPM_P2
2023/04/05 00:01:32;;;;;;;9.25;4.85;;;;;;;;;;5003993;28;20040;-84
2023/04/05 00:04:22;;;;;;;8.05;4.50;;;;;;;;;;5012488;28;20657;-85
2023/04/05 00:07:07;;;;;;;9.48;4.72;;;;;;;;;;5011702;28;20445;-73
2023/04/05 00:09:52;;;;;;;10.38;4.78;;;;;;;;;;5006695;28;20065;-75
2023/04/05 00:12:38;;;;;;;11.80;6.13;;;;;;;;;;5010000;28;20030;-74
2023/04/05 00:15:24;;;;;;;9.38;4.68;;;;;;;;;;5018132;28;20063;-75
2023/04/05 00:18:20;;;;;;;11.07;4.88;;;;;;;;;;5013699;28;20477;-72
2023/04/05 00:21:06;;;;;;;6.75;4.20;;;;;;;;;;5004352;28;20041;-81
2023/04/05 00:23:52;;;;;;;10.80;5.43;;;;;;;;;;5012762;28;20548;-74
2023/04/05 00:26:37;;;;;;;8.27;4.43;;;;;;;;;;5012126;28;20037;-85
2023/04/05 00:29:22;;;;;;;7.18;3.95;;;;;;;;;;4997694;28;20030;-85
2023/04/05 00:32:08;;;;;;;10.13;5.00;;;;;;;;;;5010131;28;20030;-84
2023/04/05 00:34:53;;;;;;;9.40;4.40;;;;;;;;;;5024281;28;20137;-85
2023/04/05 00:37:38;;;;;;;8.50;4.72;;;;;;;;;;5014172;28;20529;-87
2023/04/05 00:40:23;;;;;;;8.13;4.50;;;;;;;;;;5015143;28;20029;-73
2023/04/05 00:43:08;;;;;;;9.63;4.90;;;;;;;;;;5024103;28;20500;-73
2023/04/05 00:45:55;;;;;;;7.22;4.55;;;;;;;;;;5018457;28;20062;-74
2023/04/05 00:48:40;;;;;;;10.48;4.40;;;;;;;;;;5008996;28;20026;-75
2023/04/05 00:51:25;;;;;;;7.43;4.25;;;;;;;;;;5016723;28;20018;-75
2023/04/05 00:54:11;;;;;;;8.57;4.82;;;;;;;;;;5008115;28;20033;-75
2023/04/05 00:56:58;;;;;;;12.38;5.20;;;;;;;;;;5007060;28;20037;-74
2023/04/05 00:59:43;;;;;;;11.77;5.63;;;;;;;;;;5015094;28;20068;-77
2023/04/05 01:02:35;;;;;;;6.90;4.20;;;;;;;;;;4998475;28;20393;-76
2023/04/05 01:05:29;;;;;;;10.27;5.10;;;;;;;;;;5014688;28;20022;-73
2023/04/05 01:08:19;;;;;;;12.75;5.20;;;;;;;;;;5010544;28;20040;-75
2023/04/05 01:11:05;;;;;;;;;;;;;;;;;;5012510;28;20140;-75
2023/04/05 01:13:56;;;;;;;8.38;4.68;;;;;;;;;;5007768;28;20399;-74
2023/04/05 01:16:41;;;;;;;7.00;3.97;;;;;;;;;;5014626;28;20053;-75
2023/04/05 01:19:27;;;;;;;9.48;3.78;;;;;;;;;;4998519;28;20026;-87
2023/04/05 01:22:39;;;;;;;8.30;4.75;;;;;;;;;;5010479;28;20034;-85
2023/04/05 01:25:44;;;;;;;9.90;3.85;;;;;;;;;;5026444;28;20492;-85
2023/04/05 01:28:32;;;;;;;7.57;4.47;;;;;;;;;;5010314;28;20463;-85
2023/04/05 01:31:21;;;;;;;6.95;3.80;;;;;;;;;;4994153;28;20030;-84
2023/04/05 01:34:12;;;;;;;8.95;4.10;;;;;;;;;;5012381;28;20021;-86
2023/04/05 01:37:00;;;;;;;9.65;4.47;;;;;;;;;;5009520;28;20044;-87
2023/04/05 01:39:47;;;;;;;11.05;4.80;;;;;;;;;;5008424;28;20073;-84
2023/04/05 01:42:32;;;;;;;8.65;4.03;;;;;;;;;;4998078;28;20029;-82
2023/04/05 01:45:17;;;;;;;10.18;4.80;;;;;;;;;;5015156;28;20111;-84
2023/04/05 01:48:03;;;;;;;7.50;4.20;;;;;;;;;;4992874;28;20033;-84
2023/04/05 01:50:48;;;;;;;17.02;5.30;;;;;;;;;;5012198;28;20030;-83
2023/04/05 01:53:33;;;;;;;7.28;4.05;;;;;;;;;;5011800;28;20030;-79
2023/04/05 01:56:18;;;;;;;8.88;4.10;;;;;;;;;;5000019;28;20467;-75
2023/04/05 01:59:04;;;;;;;8.60;4.30;;;;;;;;;;5014286;28;20041;-76
2023/04/05 02:01:50;;;;;;;7.82;4.50;;;;;;;;;;5003268;28;20052;-76
2023/04/05 02:04:35;;;;;;;8.05;4.03;;;;;;;;;;5003428;28;20045;-75
2023/04/05 02:07:20;;;;;;;6.97;4.28;;;;;;;;;;5011310;28;20053;-75
2023/04/05 02:10:06;;;;;;;7.18;4.43;;;;;;;;;;5009218;28;20062;-75
2023/04/05 02:12:53;;;;;;;6.80;3.70;;;;;;;;;;5007828;28;20046;-86
2023/04/05 02:15:38;;;;;;;9.45;4.30;;;;;;;;;;4994871;28;20069;-73
2023/04/05 02:18:28;;;;;;;7.10;4.40;;;;;;;;;;5011751;28;20087;-75
2023/04/05 02:21:16;;;;;;;11.27;4.93;;;;;;;;;;5004497;28;20052;-74
2023/04/05 02:24:01;;;;;;;9.30;4.10;;;;;;;;;;5006837;28;20433;-75
2023/04/05 02:26:46;;;;;;;7.50;3.95;;;;;;;;;;5008909;28;20069;-75
2023/04/05 02:29:31;;;;;;;10.48;4.68;;;;;;;;;;5006569;28;20022;-76
2023/04/05 02:32:17;;;;;;;6.65;3.70;;;;;;;;;;5007091;28;20048;-87
2023/04/05 02:35:02;;;;;;;11.88;5.32;;;;;;;;;;5019442;28;20050;-74
2023/04/05 02:37:48;;;;;;;9.73;5.05;;;;;;;;;;5005577;28;20092;-74
2023/04/05 02:40:33;;;;;;;11.20;4.60;;;;;;;;;;5019203;28;20034;-75
2023/04/05 02:43:18;;;;;;;9.43;4.22;;;;;;;;;;5020394;28;20452;-74
2023/04/05 02:46:03;;;;;;;9.95;3.97;;;;;;;;;;5010589;28;20084;-74
2023/04/05 02:48:49;;;;;;;6.18;3.55;;;;;;;;;;5009103;28;20034;-82
2023/04/05 02:51:34;;;;;;;8.23;4.72;;;;;;;;;;5011407;28;20385;-84
2023/04/05 02:54:19;;;;;;;7.10;4.28;;;;;;;;;;5009105;28;20489;-85
2023/04/05 02:57:09;;;;;;;9.23;5.57;;;;;;;;;;5006629;28;20048;-84
2023/04/05 02:59:55;;;;;;;8.57;4.15;;;;;;;;;;5017423;28;20091;-85
2023/04/05 03:02:40;;;;;;;6.78;4.05;;;;;;;;;;5013050;28;20033;-84
2023/04/05 03:05:26;;;;;;;10.90;5.40;;;;;;;;;;5009906;28;20034;-87
2023/04/05 03:08:17;;;;;;;8.77;4.35;;;;;;;;;;5011504;28;20154;-80
2023/04/05 03:11:03;;;;;;;6.63;3.58;;;;;;;;;;5008756;28;20041;-81
2023/04/05 03:13:49;;;;;;;7.57;4.03;;;;;;;;;;4989159;28;20663;-79
2023/04/05 03:16:34;;;;;;;7.97;4.05;;;;;;;;;;5005215;28;20101;-78
2023/04/05 03:19:21;;;;;;;8.85;4.70;;;;;;;;;;5003050;28;20558;-78
2023/04/05 03:22:06;;;;;;;8.43;4.88;;;;;;;;;;4999895;28;20120;-79
2023/04/05 03:24:52;;;;;;;8.60;4.35;;;;;;;;;;5003583;28;20583;-79
2023/04/05 03:27:39;;;;;;;8.50;4.63;;;;;;;;;;5002400;28;20519;-82
2023/04/05 03:30:25;;;;;;;8.23;4.35;;;;;;;;;;5019882;28;20034;-76
2023/04/05 03:33:10;;;;;;;13.18;5.38;;;;;;;;;;4991107;28;20627;-75
2023/04/05 03:35:56;;;;;;;7.85;4.07;;;;;;;;;;5005697;28;20049;-76
2023/04/05 03:38:42;;;;;;;8.15;4.32;;;;;;;;;;4990169;28;20057;-75
2023/04/05 03:41:28;;;;;;;8.60;4.15;;;;;;;;;;5006625;28;20366;-76
2023/04/05 03:44:13;;;;;;;8.70;4.22;;;;;;;;;;4993445;28;20106;-74
2023/04/05 03:46:58;;;;;;;8.85;4.18;;;;;;;;;;4990644;28;20030;-72
2023/04/05 03:49:44;;;;;;;8.90;4.47;;;;;;;;;;4990034;28;20025;-72
2023/04/05 03:52:29;;;;;;;12.52;4.65;;;;;;;;;;5010537;28;20022;-72
2023/04/05 03:55:15;;;;;;;8.18;4.03;;;;;;;;;;5006380;28;20033;-72
2023/04/05 03:58:01;;;;;;;7.30;4.22;;;;;;;;;;5004860;28;20061;-72
2023/04/05 04:00:46;;;;;;;10.30;4.05;;;;;;;;;;5005347;28;20128;-72
2023/04/05 04:03:31;;;;;;;8.77;4.53;;;;;;;;;;4982146;28;20444;-82
2023/04/05 04:06:17;;;;;;;9.63;4.38;;;;;;;;;;5005697;28;20611;-75
2023/04/05 04:09:04;;;;;;;8.05;4.75;;;;;;;;;;4984428;28;20484;-75
2023/04/05 04:11:49;;;;;;;10.23;4.18;;;;;;;;;;5005898;28;20472;-74
2023/04/05 04:14:35;;;;;;;8.10;4.10;;;;;;;;;;4980274;28;20030;-75
2023/04/05 04:17:26;;;;;;;8.35;4.32;;;;;;;;;;4993628;28;20018;-75
2023/04/05 04:20:12;;;;;;;9.98;5.68;;;;;;;;;;5006551;28;20042;-74
2023/04/05 04:22:57;;;;;;;8.38;4.13;;;;;;;;;;4994766;28;20034;-85
2023/04/05 04:25:44;;;;;;;8.38;4.18;;;;;;;;;;5007444;28;20026;-75
2023/04/05 04:28:33;;;;;;;8.15;4.43;;;;;;;;;;5008681;28;20026;-73
2023/04/05 04:31:20;;;;;;;11.55;4.70;;;;;;;;;;5010603;28;20021;-74
2023/04/05 04:34:05;;;;;;;10.90;4.97;;;;;;;;;;5006138;28;20018;-74
2023/04/05 04:36:59;;;;;;;7.82;4.50;;;;;;;;;;5015689;28;20400;-75
2023/04/05 04:39:46;;;;;;;13.13;5.40;;;;;;;;;;5004074;28;20046;-75
2023/04/05 04:42:37;;;;;;;9.25;3.80;;;;;;;;;;4992252;28;20326;-81
2023/04/05 04:45:23;;;;;;;8.55;4.22;;;;;;;;;;4992689;28;20037;-81
2023/04/05 04:48:08;;;;;;;8.13;4.55;;;;;;;;;;5011251;28;20104;-78
2023/04/05 04:50:56;;;;;;;8.40;3.85;;;;;;;;;;5010255;28;20140;-77
2023/04/05 04:53:41;;;;;;;11.15;4.10;;;;;;;;;;5010279;28;20037;-77
2023/04/05 04:56:26;;;;;;;12.00;4.63;;;;;;;;;;5008871;28;20018;-80
2023/04/05 04:59:11;;;;;;;7.22;4.00;;;;;;;;;;5023464;28;20033;-75
2023/04/05 05:01:57;;;;;;;7.03;4.63;;;;;;;;;;5018643;28;20048;-73
2023/04/05 05:04:43;;;;;;;11.55;4.90;;;;;;;;;;5016792;28;20778;-73
2023/04/05 05:07:28;;;;;;;13.15;5.20;;;;;;;;;;5011436;28;20393;-74
2023/04/05 05:10:15;;;;;;;9.90;4.30;;;;;;;;;;5026028;28;20022;-72
2023/04/05 05:13:00;;;;;;;9.98;5.05;;;;;;;;;;5027000;28;20033;-73
2023/04/05 05:15:45;;;;;;;6.95;4.22;;;;;;;;;;5030592;28;20029;-76
2023/04/05 05:18:31;;;;;;;10.80;4.45;;;;;;;;;;5020271;28;20024;-77
2023/04/05 05:21:16;;;;;;;10.00;4.55;;;;;;;;;;5017698;28;20056;-82
2023/04/05 05:24:01;;;;;;;11.52;4.88;;;;;;;;;;5019665;28;20120;-83
2023/04/05 05:26:47;;;;;;;9.90;5.07;;;;;;;;;;5019520;28;20056;-85
2023/04/05 05:29:32;;;;;;;11.00;4.80;;;;;;;;;;5019423;28;20189;-83
2023/04/05 05:32:17;;;;;;;8.30;4.68;;;;;;;;;;5016820;28;20452;-84
2023/04/05 05:35:02;;;;;;;11.43;5.28;;;;;;;;;;5019296;28;20049;-74
2023/04/05 05:37:48;;;;;;;10.25;5.13;;;;;;;;;;5010208;28;20037;-75
2023/04/05 05:40:33;;;;;;;9.70;5.22;;;;;;;;;;4991868;28;20038;-75
2023/04/05 05:43:19;;;;;;;10.68;4.68;;;;;;;;;;5010578;28;20080;-74
2023/04/05 05:46:04;;;;;;;9.25;4.82;;;;;;;;;;5011569;28;20305;-74
2023/04/05 05:48:50;;;;;;;10.15;5.28;;;;;;;;;;5005381;28;20385;-74
2023/04/05 05:51:35;;;;;;;9.60;5.45;;;;;;;;;;5011259;28;20115;-75
2023/04/05 05:54:20;;;;;;;9.02;5.00;;;;;;;;;;5012150;28;20175;-79
2023/04/05 05:57:06;;;;;;;12.52;6.35;;;;;;;;;;5013119;28;20034;-75
2023/04/05 05:59:51;;;;;;;17.42;6.40;;;;;;;;;;5009088;28;20273;-75
2023/04/05 06:02:37;;;;;;;13.32;6.40;;;;;;;;;;5011397;28;20053;-75
2023/04/05 06:05:22;;;;;;;14.38;6.65;;;;;;;;;;5005840;28;20064;-76
2023/04/05 06:08:08;;;;;;;14.07;5.78;;;;;;;;;;5011411;28;20018;-74
2023/04/05 06:10:53;;;;;;;15.43;5.88;;;;;;;;;;5014601;28;20519;-73
2023/04/05 06:13:38;;;;;;;14.60;6.93;;;;;;;;;;5024420;28;20057;-78
2023/04/05 06:16:23;;;;;;;15.63;6.28;;;;;;;;;;5008134;28;20063;-72
2023/04/05 06:19:08;;;;;;;14.30;6.22;;;;;;;;;;5003760;28;20514;-72
2023/04/05 06:21:54;;;;;;;12.68;5.57;;;;;;;;;;5016608;28;20041;-74
2023/04/05 06:24:39;;;;;;;11.88;6.32;;;;;;;;;;5014212;28;20913;-72
2023/04/05 06:27:24;;;;;;;10.55;5.90;;;;;;;;;;5002065;28;20042;-73
2023/04/05 06:30:10;;;;;;;9.90;5.05;;;;;;;;;;5008508;28;20030;-76
2023/04/05 06:32:55;;;;;;;12.13;5.78;;;;;;;;;;5000791;28;20084;-76
2023/04/05 06:35:40;;;;;;;12.25;6.20;;;;;;;;;;5003680;28;20068;-75
2023/04/05 06:38:27;;;;;;;12.32;5.68;;;;;;;;;;4989287;28;20394;-76
2023/04/05 06:41:12;;;;;;;13.85;5.57;;;;;;;;;;5006532;28;20044;-77
2023/04/05 06:43:57;;;;;;;11.38;6.32;;;;;;;;;;5007052;28;20396;-72
2023/04/05 06:46:43;;;;;;;15.38;6.18;;;;;;;;;;5003545;28;20033;-75
2023/04/05 06:49:28;;;;;;;15.88;6.70;;;;;;;;;;4993337;28;20164;-77
2023/04/05 06:52:13;;;;;;;10.20;6.43;;;;;;;;;;5002320;28;20084;-80
2023/04/05 06:54:58;;;;;;;11.88;6.10;;;;;;;;;;4990268;28;20081;-77
2023/04/05 06:57:44;;;;;;;8.85;5.72;;;;;;;;;;5007698;28;20038;-75
2023/04/05 07:00:29;;;;;;;14.05;5.93;;;;;;;;;;5006340;28;20548;-75
2023/04/05 07:03:15;;;;;;;9.88;5.40;;;;;;;;;;5006734;28;20427;-78
2023/04/05 07:06:00;;;;;;;10.65;7.07;;;;;;;;;;5006885;28;20061;-79
2023/04/05 07:08:45;;;;;;;10.10;6.05;;;;;;;;;;5006312;28;20137;-78
2023/04/05 07:11:31;;;;;;;13.52;6.63;;;;;;;;;;5005342;28;20113;-78
2023/04/05 07:14:16;;;;;;;9.55;6.00;;;;;;;;;;5006529;28;20042;-78
2023/04/05 07:17:03;;;;;;;15.40;6.55;;;;;;;;;;5005599;28;20030;-77
2023/04/05 07:19:48;;;;;;;12.18;6.50;;;;;;;;;;5006906;28;20107;-76
2023/04/05 07:22:34;;;;;;;10.82;5.50;;;;;;;;;;5007547;28;20033;-77
2023/04/05 07:25:20;;;;;;;14.73;7.10;;;;;;;;;;5005971;28;20174;-75
2023/04/05 07:28:05;;;;;;;11.65;6.00;;;;;;;;;;5007332;28;20034;-72
2023/04/05 07:30:50;;;;;;;11.55;5.97;;;;;;;;;;4992227;28;20464;-72
2023/04/05 07:33:36;;;;;;;10.60;6.25;;;;;;;;;;5007294;28;20068;-72
2023/04/05 07:36:21;;;;;;;12.10;6.22;;;;;;;;;;4987703;28;20041;-74
2023/04/05 07:39:06;;;;;;;10.65;6.30;;;;;;;;;;5020581;28;20121;-76
2023/04/05 07:41:52;;;;;;;11.13;6.15;;;;;;;;;;5006076;28;20037;-73
2023/04/05 07:44:37;;;;;;;12.05;7.05;;;;;;;;;;5005570;28;20030;-72
2023/04/05 07:47:22;;;;;;;12.93;6.93;;;;;;;;;;5006065;28;20033;-75
2023/04/05 07:50:09;;;;;;;13.23;6.53;;;;;;;;;;5006442;28;20477;-74
2023/04/05 07:52:54;;;;;;;15.07;6.93;;;;;;;;;;5006976;28;20034;-75
2023/04/05 07:55:40;;;;;;;12.43;6.50;;;;;;;;;;5001358;28;20026;-73
2023/04/05 07:58:25;;;;;;;13.48;7.22;;;;;;;;;;5006271;28;20388;-74
2023/04/05 08:01:10;;;;;;;13.07;7.45;;;;;;;;;;5007074;28;20064;-72
2023/04/05 08:03:56;;;;;;;8.38;5.20;;;;;;;;;;5005608;28;20032;-71
2023/04/05 08:06:41;;;;;;;15.27;6.28;;;;;;;;;;5005517;28;20400;-77
2023/04/05 08:09:26;;;;;;;8.05;5.50;;;;;;;;;;5008316;28;20026;-73
2023/04/05 08:12:11;;;;;;;9.25;5.53;;;;;;;;;;4993006;28;20481;-76
2023/04/05 08:14:57;;;;;;;12.48;6.63;;;;;;;;;;5004834;28;20168;-75
2023/04/05 08:17:42;;;;;;;10.90;5.97;;;;;;;;;;5005849;28;20363;-75
2023/04/05 08:20:27;;;;;;;13.60;6.78;;;;;;;;;;5005373;28;20034;-69
2023/04/05 08:23:12;;;;;;;8.38;4.95;;;;;;;;;;5010725;28;20493;-77
2023/04/05 08:25:58;;;;;;;10.02;5.45;;;;;;;;;;5009690;28;20048;-77
2023/04/05 08:28:43;;;;;;;11.43;5.90;;;;;;;;;;5010029;28;20134;-77
2023/04/05 08:31:28;;;;;;;10.35;5.40;;;;;;;;;;5009314;28;20504;-76
2023/04/05 08:34:14;;;;;;;9.35;5.55;;;;;;;;;;5009926;28;20048;-75
2023/04/05 08:36:59;;;;;;;11.95;5.90;;;;;;;;;;5008522;28;20045;-75
2023/04/05 08:39:44;;;;;;;8.88;5.03;;;;;;;;;;4991419;28;20069;-68
2023/04/05 08:42:33;;;;;;;8.95;5.05;;;;;;;;;;5009602;28;20037;-70
2023/04/05 08:45:19;;;;;;;10.95;6.05;;;;;;;;;;5009793;28;20033;-73
2023/04/05 08:48:04;;;;;;;11.05;5.20;;;;;;;;;;4992165;28;20079;-70
2023/04/05 08:50:54;;;;;;;7.45;5.07;;;;;;;;;;5008694;28;20224;-74
2023/04/05 08:53:39;;;;;;;13.13;6.30;;;;;;;;;;5007801;28;20037;-71
2023/04/05 08:56:26;;;;;;;14.82;6.20;;;;;;;;;;5008270;28;20057;-72
2023/04/05 08:59:12;;;;;;;11.20;5.43;;;;;;;;;;5022663;28;20048;-72
2023/04/05 09:01:57;;;;;;;9.05;5.43;;;;;;;;;;5008795;28;20507;-76
2023/04/05 09:04:43;;;;;;;9.88;4.32;;;;;;;;;;5010048;28;20092;-75
2023/04/05 09:07:30;;;;;;;9.40;4.90;;;;;;;;;;5009476;28;20033;-75
2023/04/05 09:10:17;;;;;;;7.65;4.50;;;;;;;;;;5010412;28;20496;-76
2023/04/05 09:13:02;;;;;;;8.77;5.00;;;;;;;;;;5006617;28;20509;-76
2023/04/05 09:15:48;;;;;;;13.15;5.70;;;;;;;;;;5011346;28;20373;-77
2023/04/05 09:18:33;;;;;;;12.07;4.60;;;;;;;;;;5000348;28;21420;-75
2023/04/05 09:21:19;;;;;;;8.60;5.78;;;;;;;;;;5008733;28;20121;-73
2023/04/05 09:24:05;;;;;;;8.55;5.57;;;;;;;;;;5008238;28;20030;-75
2023/04/05 09:27:02;;;;;;;9.43;4.85;;;;;;;;;;4993620;28;20037;-75
2023/04/05 09:29:48;;;;;;;8.82;4.57;;;;;;;;;;5009422;28;20489;-76
2023/04/05 09:32:34;;;;;;;10.00;5.00;;;;;;;;;;5003258;28;20521;-74
2023/04/05 09:35:39;;;;;;;9.43;4.25;;;;;;;;;;5009501;28;20054;-77
2023/04/05 09:38:51;;;;;;;11.93;4.22;;;;;;;;;;5019787;28;20022;-78
2023/04/05 09:41:38;;;;;;;8.27;4.63;;;;;;;;;;5022112;28;20038;-75
2023/04/05 09:44:23;;;;;;;6.47;3.90;;;;;;;;;;4994778;28;20026;-78
2023/04/05 09:47:16;;;;;;;8.13;3.88;;;;;;;;;;4993255;28;20115;-77
2023/04/05 09:50:05;;;;;;;7.57;4.30;;;;;;;;;;4995148;28;20099;-80
2023/04/05 09:53:03;;;;;;;6.38;3.85;;;;;;;;;;4995465;28;20072;-77
2023/04/05 09:55:49;;;;;;;7.88;4.45;;;;;;;;;;5006750;28;20045;-74
2023/04/05 09:58:34;;;;;;;7.97;4.28;;;;;;;;;;5008926;28;20068;-74
2023/04/05 10:01:20;;;;;;;8.25;4.10;;;;;;;;;;5010577;28;20167;-73
2023/04/05 10:04:06;;;;;;;8.88;4.18;;;;;;;;;;5018762;28;20121;-74
2023/04/05 10:06:51;;;;;;;6.43;3.80;;;;;;;;;;5005847;28;20458;-72
2023/04/05 10:09:37;;;;;;;7.93;4.40;;;;;;;;;;5007903;28;20053;-70
2023/04/05 10:12:25;;;;;;;7.95;3.92;;;;;;;;;;5006128;28;20040;-75
2023/04/05 10:15:12;;;;;;;7.95;4.57;;;;;;;;;;5007336;28;20046;-74
2023/04/05 10:18:09;;;;;;;6.38;3.90;;;;;;;;;;5007669;28;20033;-70
2023/04/05 10:20:56;;;;;;;8.18;4.53;;;;;;;;;;5004892;28;20066;-76
2023/04/05 10:23:43;;;;;;;7.18;4.05;;;;;;;;;;5014228;28;20037;-73
2023/04/05 10:26:35;;;;;;;10.18;4.20;;;;;;;;;;5007237;28;20034;-76
2023/04/05 10:29:25;;;;;;;6.60;3.60;;;;;;;;;;5021253;28;20069;-75
2023/04/05 10:32:14;;;;;;;7.63;3.70;;;;;;;;;;4993508;28;20080;-73
2023/04/05 10:35:15;;;;;;;5.72;3.63;;;;;;;;;;5004391;28;20054;-73
2023/04/05 10:38:11;;;;;;;6.32;4.05;;;;;;;;;;4990435;28;20041;-74
2023/04/05 10:41:06;;;;;;;7.45;4.05;;;;;;;;;;4993730;28;20509;-74
2023/04/05 10:43:55;;;;;;;5.75;3.38;;;;;;;;;;4991880;28;20242;-73
2023/04/05 10:46:43;;;;;;;8.00;3.50;;;;;;;;;;4987544;28;20566;-74
2023/04/05 10:49:48;;;;;;;6.50;3.97;;;;;;;;;;4990317;28;20209;-84
2023/04/05 10:52:34;;;;;;;6.70;3.85;;;;;;;;;;4997517;28;20044;-79
2023/04/05 10:55:20;;;;;;;8.10;4.63;;;;;;;;;;5004163;28;20188;-77
2023/04/05 10:58:06;;;;;;;6.30;3.83;;;;;;;;;;4989884;28;20116;-79
2023/04/05 11:00:52;;;;;;;6.85;3.67;;;;;;;;;;4999834;28;20129;-79
2023/04/05 11:03:43;;;;;;;9.45;4.25;;;;;;;;;;4978415;28;20028;-76
2023/04/05 11:06:28;;;;;;;6.70;4.07;;;;;;;;;;5005084;28;20025;-80
2023/04/05 11:09:15;;;;;;;6.65;4.03;;;;;;;;;;5002419;28;20168;-77
2023/04/05 11:12:00;;;;;;;6.97;4.13;;;;;;;;;;5004805;28;20021;-77
2023/04/05 11:14:46;;;;;;;7.80;4.45;;;;;;;;;;4993914;28;20516;-75
2023/04/05 11:17:31;;;;;;;6.00;3.83;;;;;;;;;;4988436;28;20030;-76
2023/04/05 11:20:16;;;;;;;10.15;3.83;;;;;;;;;;4987937;28;20496;-76
2023/04/05 11:23:01;;;;;;;8.00;4.03;;;;;;;;;;5003123;28;20029;-78
2023/04/05 11:25:49;;;;;;;8.65;4.18;;;;;;;;;;4986539;28;20085;-80
2023/04/05 11:28:39;;;;;;;5.75;3.78;;;;;;;;;;4991244;28;20586;-77
2023/04/05 11:31:25;;;;;;;5.47;3.55;;;;;;;;;;4976813;28;20524;-77
2023/04/05 11:34:11;;;;;;;6.03;3.95;;;;;;;;;;5012333;28;20037;-74
2023/04/05 11:36:56;;;;;;;7.68;4.85;;;;;;;;;;4992967;28;20420;-75
2023/04/05 11:39:41;;;;;;;5.72;3.88;;;;;;;;;;5007120;28;20033;-74
2023/04/05 11:42:26;;;;;;;7.35;4.30;;;;;;;;;;4991935;28;20116;-70
2023/04/05 11:45:12;;;;;;;6.53;4.15;;;;;;;;;;5006884;28;20041;-70
2023/04/05 11:48:04;;;;;;;7.88;4.13;;;;;;;;;;4987917;28;20057;-70
2023/04/05 11:50:49;;;;;;;8.40;4.50;;;;;;;;;;5004531;28;20037;-69
2023/04/05 11:53:35;;;;;;;6.90;4.57;;;;;;;;;;4999432;28;20041;-72
2023/04/05 11:56:20;;;;;;;8.07;4.32;;;;;;;;;;5004709;28;20547;-72
2023/04/05 11:59:06;;;;;;;7.80;4.07;;;;;;;;;;5007140;28;20408;-71
2023/04/05 12:01:57;;;;;;;9.60;4.85;;;;;;;;;;5003424;28;20037;-73
2023/04/05 12:04:42;;;;;;;5.55;3.65;;;;;;;;;;5011174;28;20017;-83
2023/04/05 12:07:28;;;;;;;7.18;4.65;;;;;;;;;;5009597;28;20044;-80
2023/04/05 12:10:16;;;;;;;8.13;5.13;;;;;;;;;;5009564;28;20033;-82
2023/04/05 12:13:01;;;;;;;6.20;4.15;;;;;;;;;;5010305;28;20598;-85
2023/04/05 12:15:46;;;;;;;6.03;3.78;;;;;;;;;;4994073;28;20033;-83
2023/04/05 12:18:32;;;;;;;6.82;3.72;;;;;;;;;;5007321;28;20030;-84
2023/04/05 12:21:18;;;;;;;7.05;3.80;;;;;;;;;;5017557;28;20064;-85
2023/04/05 12:24:03;;;;;;;9.93;4.30;;;;;;;;;;5011382;28;20030;-73
2023/04/05 12:26:48;;;;;;;6.47;4.07;;;;;;;;;;5019442;28;20124;-75
2023/04/05 12:29:33;;;;;;;9.88;4.22;;;;;;;;;;5005027;28;20050;-75
2023/04/05 12:32:19;;;;;;;4.40;3.10;;;;;;;;;;5006793;28;20021;-72
2023/04/05 12:35:18;;;;;;;6.10;4.05;;;;;;;;;;5007056;28;20073;-75
2023/04/05 12:38:04;;;;;;;10.02;4.50;;;;;;;;;;5020206;28;20420;-72
2023/04/05 12:40:51;;;;;;;8.55;4.22;;;;;;;;;;5006001;28;20124;-74
2023/04/05 12:43:40;;;;;;;7.00;3.60;;;;;;;;;;4994545;28;20021;-74
2023/04/05 12:46:42;;;;;;;5.68;3.88;;;;;;;;;;5010220;28;20591;-75
2023/04/05 12:49:27;;;;;;;7.25;4.20;;;;;;;;;;5006749;28;20108;-73
2023/04/05 12:52:18;;;;;;;7.35;3.58;;;;;;;;;;5008219;28;20021;-73
2023/04/05 12:55:03;;;;;;;6.55;4.10;;;;;;;;;;5019348;28;20469;-71
2023/04/05 12:57:50;;;;;;;6.45;3.30;;;;;;;;;;5006255;28;20584;-77
2023/04/05 13:00:35;;;;;;;5.97;3.78;;;;;;;;;;5006200;28;20091;-72
2023/04/05 13:03:20;;;;;;;6.63;3.30;;;;;;;;;;5006288;28;20500;-73
2023/04/05 13:06:05;;;;;;;7.35;3.50;;;;;;;;;;5005723;28;20034;-73
2023/04/05 13:08:51;;;;;;;5.78;3.55;;;;;;;;;;4995416;28;20027;-73
2023/04/05 13:11:36;;;;;;;7.43;3.95;;;;;;;;;;5005750;28;20513;-73
2023/04/05 13:14:21;;;;;;;7.90;4.28;;;;;;;;;;5007701;28;20108;-75
2023/04/05 13:17:06;;;;;;;5.72;3.47;;;;;;;;;;5006663;28;20104;-72
2023/04/05 13:19:52;;;;;;;7.75;4.40;;;;;;;;;;5006614;28;20424;-72
2023/04/05 13:22:38;;;;;;;5.28;3.30;;;;;;;;;;4993239;28;20033;-72
2023/04/05 13:25:23;;;;;;;8.13;4.38;;;;;;;;;;5006620;28;20499;-70
2023/04/05 13:28:08;;;;;;;6.82;4.40;;;;;;;;;;5006094;28;20056;-73
2023/04/05 13:30:54;;;;;;;7.97;4.18;;;;;;;;;;4993439;28;20436;-71
2023/04/05 13:33:39;;;;;;;5.80;3.63;;;;;;;;;;5005309;28;20026;-73
2023/04/05 13:36:25;;;;;;;5.85;3.58;;;;;;;;;;5006729;28;20045;-82
2023/04/05 13:39:10;;;;;;;6.70;4.03;;;;;;;;;;5006257;28;20044;-82
2023/04/05 13:41:56;;;;;;;6.32;3.60;;;;;;;;;;5003888;28;20184;-81
2023/04/05 13:44:41;;;;;;;7.15;4.45;;;;;;;;;;5006052;28;20030;-84
2023/04/05 13:47:26;;;;;;;4.65;3.40;;;;;;;;;;5006736;28;20033;-82
2023/04/05 13:50:11;;;;;;;7.40;3.90;;;;;;;;;;4992281;28;20037;-83
2023/04/05 13:52:57;;;;;;;6.68;3.88;;;;;;;;;;5006900;28;20022;-87
2023/04/05 13:55:42;;;;;;;5.72;3.92;;;;;;;;;;4990515;28;20034;-73
2023/04/05 13:58:27;;;;;;;8.90;4.68;;;;;;;;;;4991783;28;20026;-75
2023/04/05 14:01:12;;;;;;;5.55;3.72;;;;;;;;;;5004158;28;20038;-75
2023/04/05 14:03:58;;;;;;;10.00;4.28;;;;;;;;;;5003453;28;20564;-73
2023/04/05 14:06:43;;;;;;;5.55;3.72;;;;;;;;;;5007571;28;20038;-73
2023/04/05 14:09:29;;;;;;;6.90;3.70;;;;;;;;;;5018969;28;20068;-71
2023/04/05 14:12:14;;;;;;;5.93;4.13;;;;;;;;;;5006687;28;20077;-74
2023/04/05 14:15:00;;;;;;;6.45;4.25;;;;;;;;;;5003227;28;20517;-72
2023/04/05 14:17:45;;;;;;;6.95;3.88;;;;;;;;;;5003679;28;20500;-76
2023/04/05 14:20:30;;;;;;;7.00;4.47;;;;;;;;;;4987482;28;20029;-76
2023/04/05 14:23:15;;;;;;;8.02;4.50;;;;;;;;;;5008700;28;20040;-73
2023/04/05 14:26:00;;;;;;;6.85;4.22;;;;;;;;;;5004589;28;20040;-72
2023/04/05 14:28:46;;;;;;;9.77;4.22;;;;;;;;;;5004841;28;20092;-77
2023/04/05 14:31:31;;;;;;;8.80;4.00;;;;;;;;;;4999513;28;20571;-74
2023/04/05 14:34:17;;;;;;;5.45;3.70;;;;;;;;;;4989698;28;20030;-73
2023/04/05 14:37:04;;;;;;;7.15;4.07;;;;;;;;;;5006015;28;20395;-74
2023/04/05 14:39:50;;;;;;;7.88;3.90;;;;;;;;;;5007063;28;20037;-71
2023/04/05 14:42:35;;;;;;;8.65;4.68;;;;;;;;;;5005032;28;20028;-72
2023/04/05 14:45:22;;;;;;;7.43;4.57;;;;;;;;;;4991574;28;20096;-73
2023/04/05 14:48:07;;;;;;;7.63;4.18;;;;;;;;;;5002055;28;20310;-83
2023/04/05 14:50:52;;;;;;;7.65;4.50;;;;;;;;;;4989084;28;20503;-78
2023/04/05 14:53:38;;;;;;;6.25;3.67;;;;;;;;;;5004735;28;20196;-77
2023/04/05 14:56:25;;;;;;;6.72;4.28;;;;;;;;;;4992457;28;20032;-81
2023/04/05 14:59:10;;;;;;;10.25;4.55;;;;;;;;;;5003263;28;20029;-78
2023/04/05 15:01:55;;;;;;;7.95;4.53;;;;;;;;;;5003786;28;20068;-79
2023/04/05 15:04:40;;;;;;;6.47;4.38;;;;;;;;;;4990403;28;20018;-81
2023/04/05 15:07:26;;;;;;;8.02;5.53;;;;;;;;;;5004592;28;20025;-72
2023/04/05 15:10:11;;;;;;;7.53;4.30;;;;;;;;;;5005393;28;20748;-72
2023/04/05 15:12:56;;;;;;;10.60;4.25;;;;;;;;;;5005939;28;20471;-72
2023/04/05 15:15:42;;;;;;;6.53;3.85;;;;;;;;;;5004809;28;20033;-74
2023/04/05 15:18:27;;;;;;;6.53;3.70;;;;;;;;;;5003648;28;20469;-73
2023/04/05 15:21:12;;;;;;;9.30;4.30;;;;;;;;;;5004570;28;20108;-73
2023/04/05 15:23:57;;;;;;;7.30;4.57;;;;;;;;;;5005012;28;20057;-76
2023/04/05 15:26:43;;;;;;;5.95;3.35;;;;;;;;;;5003053;28;20049;-76
2023/04/05 15:29:28;;;;;;;6.53;3.60;;;;;;;;;;5002801;28;20627;-76
2023/04/05 15:32:14;;;;;;;6.53;4.00;;;;;;;;;;5004994;28;20156;-76
2023/04/05 15:35:00;;;;;;;6.40;3.22;;;;;;;;;;5003785;28;20124;-75
2023/04/05 15:37:45;;;;;;;9.20;3.63;;;;;;;;;;5003470;28;20030;-74
2023/04/05 15:40:51;;;;;;;5.57;3.42;;;;;;;;;;5003596;28;20088;-72
2023/04/05 15:43:37;;;;;;;7.68;4.13;;;;;;;;;;5003684;28;20034;-74
2023/04/05 15:46:22;;;;;;;6.28;3.75;;;;;;;;;;5003576;28;20141;-83
2023/04/05 15:49:08;;;;;;;7.43;3.88;;;;;;;;;;4988829;28;20026;-83
2023/04/05 15:51:53;;;;;;;6.75;3.80;;;;;;;;;;5004461;28;20732;-85
2023/04/05 15:54:39;;;;;;;6.30;3.63;;;;;;;;;;5004056;28;20033;-85
2023/04/05 15:57:24;;;;;;;10.43;4.18;;;;;;;;;;5003013;28;20033;-82
2023/04/05 16:00:10;;;;;;;5.55;3.70;;;;;;;;;;5003872;28;20052;-78
2023/04/05 16:02:57;;;;;;;6.80;4.00;;;;;;;;;;5016598;28;20377;-82
2023/04/05 16:05:43;;;;;;;7.60;4.28;;;;;;;;;;4988444;28;20410;-83
2023/04/05 16:08:28;;;;;;;8.15;4.10;;;;;;;;;;4990147;28;20500;-81
2023/04/05 16:11:13;;;;;;;6.75;3.97;;;;;;;;;;5007702;28;20029;-82
2023/04/05 16:13:58;;;;;;;8.68;4.68;;;;;;;;;;5004675;28;20500;-84
2023/04/05 16:16:44;;;;;;;8.27;4.65;;;;;;;;;;5003934;28;20057;-77
2023/04/05 16:19:29;;;;;;;6.53;4.78;;;;;;;;;;5002615;28;20753;-77
2023/04/05 16:22:14;;;;;;;8.32;3.67;;;;;;;;;;5018827;28;20025;-76
2023/04/05 16:25:00;;;;;;;8.75;4.25;;;;;;;;;;5005399;28;20037;-74
2023/04/05 16:27:45;;;;;;;7.38;3.85;;;;;;;;;;4999655;28;20116;-73
2023/04/05 16:30:30;;;;;;;6.72;3.85;;;;;;;;;;4987017;28;20557;-71
2023/04/05 16:33:16;;;;;;;6.43;3.95;;;;;;;;;;4990665;28;20031;-70
2023/04/05 16:36:02;;;;;;;9.52;4.63;;;;;;;;;;5005998;28;20566;-71